createdAt,value
2023-09-06T00:02:04.372Z,3.99
2023-09-06T00:04:32.081Z,4.05
2023-09-06T00:06:58.911Z,4.23
2023-09-06T00:09:27.721Z,4.04
2023-09-06T00:11:54.597Z,4.22
2023-09-06T00:14:21.643Z,4.29
2023-09-06T00:16:48.520Z,4.19
2023-09-06T00:19:15.284Z,4.11
2023-09-06T00:21:42.200Z,4.14
2023-09-06T00:24:09.199Z,4.34
2023-09-06T00:26:36.971Z,4.01
2023-09-06T00:29:03.643Z,4.23
2023-09-06T00:31:30.625Z,4.11
2023-09-06T00:33:58.786Z,4.23
2023-09-06T00:36:27.029Z,4.61
2023-09-06T00:38:54.223Z,4.43
2023-09-06T00:41:21.432Z,4.51
2023-09-06T00:43:48.925Z,4.35
2023-09-06T00:46:16.528Z,4.46
2023-09-06T00:48:43.158Z,4.12
2023-09-06T00:51:09.889Z,4.25
2023-09-06T00:53:38.624Z,4.56
2023-09-06T00:56:05.669Z,4.55
2023-09-06T00:58:33.058Z,4.39
2023-09-06T01:00:59.766Z,4.15
2023-09-06T01:03:26.961Z,4.25
2023-09-06T01:05:55.316Z,4.30
2023-09-06T01:08:22.987Z,4.37
2023-09-06T01:10:49.610Z,4.10
2023-09-06T01:13:17.686Z,4.18
2023-09-06T01:15:45.486Z,4.19
2023-09-06T01:18:12.324Z,4.58
2023-09-06T01:20:38.996Z,4.39
2023-09-06T01:23:06.065Z,4.38
2023-09-06T01:25:33.010Z,4.43
2023-09-06T01:28:00.051Z,4.44
2023-09-06T01:30:27.019Z,4.76
2023-09-06T01:32:54.745Z,4.49
2023-09-06T01:35:21.724Z,4.62
2023-09-06T01:37:48.462Z,4.73
2023-09-06T01:40:16.023Z,4.50
2023-09-06T01:42:43.530Z,4.83
2023-09-06T01:45:10.471Z,4.37
2023-09-06T01:47:37.481Z,4.72
2023-09-06T01:50:05.119Z,4.80
2023-09-06T01:52:33.347Z,4.57
2023-09-06T01:55:00.224Z,4.63
2023-09-06T01:57:26.990Z,4.67
2023-09-06T01:59:53.856Z,4.68
2023-09-06T02:02:23.932Z,4.86
2023-09-06T02:04:50.573Z,4.69
2023-09-06T02:07:17.792Z,4.99
2023-09-06T02:09:47.176Z,5.12
2023-09-06T02:12:13.814Z,5.27
2023-09-06T02:14:40.618Z,5.38
2023-09-06T02:17:07.496Z,5.25
2023-09-06T02:19:34.441Z,5.28
2023-09-06T02:22:02.421Z,5.38
2023-09-06T02:24:30.140Z,5.37
2023-09-06T02:26:57.092Z,5.09
2023-09-06T02:29:23.744Z,5.06
2023-09-06T02:31:50.730Z,4.81
2023-09-06T02:34:17.726Z,4.94
2023-09-06T02:36:44.509Z,5.29
2023-09-06T02:39:12.646Z,5.03
2023-09-06T02:41:39.590Z,5.10
2023-09-06T02:44:07.258Z,5.03
2023-09-06T02:46:34.978Z,5.07
2023-09-06T02:49:02.394Z,5.11
2023-09-06T02:51:29.744Z,5.24
2023-09-06T02:53:57.211Z,5.03
2023-09-06T02:56:24.043Z,5.23
2023-09-06T02:58:52.775Z,5.26
2023-09-06T03:01:20.442Z,5.03
2023-09-06T03:03:49.515Z,5.09
2023-09-06T03:06:16.213Z,5.11
2023-09-06T03:08:50.996Z,5.18
2023-09-06T03:11:18.225Z,4.88
2023-09-06T03:13:45.329Z,5.09
2023-09-06T03:16:12.828Z,4.99
2023-09-06T03:18:40.647Z,5.16
2023-09-06T03:21:09.422Z,4.95
2023-09-06T03:23:36.737Z,5.26
2023-09-06T03:26:03.936Z,5.16
2023-09-06T03:28:34.225Z,5.05
2023-09-06T03:31:03.171Z,4.72
2023-09-06T03:33:29.838Z,4.80
2023-09-06T03:35:57.571Z,5.15
2023-09-06T03:38:24.677Z,4.79
2023-09-06T03:40:52.641Z,5.01
2023-09-06T03:43:20.008Z,5.16
2023-09-06T03:45:46.935Z,4.99
2023-09-06T03:48:13.723Z,4.91
2023-09-06T03:50:40.854Z,4.69
2023-09-06T03:53:09.791Z,5.03
2023-09-06T03:55:40.912Z,4.63
2023-09-06T03:58:08.648Z,4.99
2023-09-06T04:00:36.360Z,4.84
2023-09-06T04:03:03.970Z,5.24
2023-09-06T04:05:31.014Z,4.97
2023-09-06T04:07:58.678Z,5.18
2023-09-06T04:16:51.867Z,5.05
2023-09-06T04:19:24.356Z,4.75
2023-09-06T04:50:36.010Z,5.02
2023-09-06T04:53:03.490Z,5.04
2023-09-06T04:55:39.117Z,5.16
2023-09-06T04:58:06.489Z,4.98
2023-09-06T05:00:33.180Z,4.94
2023-09-06T05:03:00.944Z,5.13
2023-09-06T05:05:29.350Z,5.04
2023-09-06T05:07:59.156Z,5.09
2023-09-06T05:10:26.413Z,5.12
2023-09-06T05:12:55.128Z,5.01
2023-09-06T05:15:22.736Z,4.93
2023-09-06T05:17:50.651Z,5.08
2023-09-06T05:20:20.489Z,5.15
2023-09-06T05:22:47.563Z,4.91
2023-09-06T05:25:15.356Z,5.10
2023-09-06T05:27:42.553Z,4.88
2023-09-06T05:30:12.552Z,4.93
2023-09-06T05:32:40.109Z,4.82
2023-09-06T05:35:11.587Z,4.82
2023-09-06T05:37:38.477Z,5.02
2023-09-06T05:40:05.465Z,5.12
2023-09-06T05:42:34.681Z,4.85
2023-09-06T05:45:03.734Z,4.87
2023-09-06T05:47:33.564Z,5.14
2023-09-06T05:50:00.789Z,4.87
2023-09-06T05:52:33.560Z,4.80
2023-09-06T05:55:01.421Z,5.56
2023-09-06T05:57:35.309Z,4.89
2023-09-06T06:00:02.901Z,4.80
2023-09-06T06:02:37.133Z,4.29
2023-09-06T06:05:05.985Z,4.73
2023-09-06T06:07:33.245Z,4.79
2023-09-06T06:10:02.243Z,4.64
2023-09-06T06:12:37.577Z,4.44
2023-09-06T06:15:05.374Z,4.78
2023-09-06T06:17:32.501Z,5.40
2023-09-06T06:19:59.461Z,4.64
2023-09-06T06:22:26.444Z,4.69
2023-09-06T06:24:54.258Z,4.96
2023-09-06T06:27:22.149Z,4.70
2023-09-06T06:29:50.142Z,4.83
2023-09-06T06:32:18.578Z,4.75
2023-09-06T06:34:45.581Z,4.57
2023-09-06T06:37:12.354Z,4.96
2023-09-06T06:39:43.134Z,4.99
2023-09-06T06:42:09.987Z,4.51
2023-09-06T06:44:40.027Z,4.70
2023-09-06T06:47:06.990Z,4.60
2023-09-06T06:49:34.168Z,4.12
2023-09-06T06:52:01.614Z,4.04
2023-09-06T06:54:28.495Z,4.38
2023-09-06T06:56:55.917Z,3.96
2023-09-06T06:59:23.692Z,4.34
2023-09-06T07:01:50.221Z,4.38
2023-09-06T07:04:19.431Z,4.15
2023-09-06T07:06:46.867Z,3.86
2023-09-06T07:09:13.786Z,4.27
2023-09-06T07:11:40.820Z,3.79
2023-09-06T07:14:07.727Z,3.71
2023-09-06T07:16:34.870Z,3.81
2023-09-06T07:19:03.050Z,3.77
2023-09-06T07:21:30.661Z,3.68
2023-09-06T07:23:57.663Z,3.80
2023-09-06T07:26:24.654Z,4.15
2023-09-06T07:28:51.570Z,3.99
2023-09-06T07:31:22.754Z,4.01
2023-09-06T07:33:49.739Z,4.18
2023-09-06T07:36:20.530Z,4.44
2023-09-06T07:38:48.367Z,4.48
2023-09-06T07:41:15.044Z,4.27
2023-09-06T07:43:42.298Z,4.13
2023-09-06T07:46:09.947Z,4.35
2023-09-06T07:48:37.041Z,4.55
2023-09-06T07:51:05.122Z,4.25
2023-09-06T07:53:31.916Z,4.50
2023-09-06T07:55:59.236Z,4.55
2023-09-06T07:58:30.458Z,4.31
2023-09-06T08:01:14.983Z,4.40
2023-09-06T08:03:45.975Z,4.36
2023-09-06T08:06:13.032Z,4.63
2023-09-06T08:08:41.067Z,4.52
2023-09-06T08:11:09.849Z,4.76
2023-09-06T08:13:36.951Z,5.11
2023-09-06T08:18:35.364Z,5.08
2023-09-06T08:21:03.252Z,5.17
2023-09-06T08:23:30.059Z,5.02
2023-09-06T08:25:57.994Z,5.07
2023-09-06T08:28:28.500Z,4.98
2023-09-06T08:30:56.860Z,5.08
2023-09-06T08:33:31.658Z,5.40
2023-09-06T08:36:05.766Z,5.48
2023-09-06T08:38:33.257Z,5.43
2023-09-06T08:41:00.939Z,5.46
2023-09-06T08:43:28.420Z,5.78
2023-09-06T08:45:57.332Z,5.67
2023-09-06T08:48:25.664Z,5.59
2023-09-06T08:50:56.455Z,5.60
2023-09-06T08:53:24.367Z,5.50
2023-09-06T08:55:51.811Z,5.62
2023-09-06T08:58:18.429Z,6.02
2023-09-06T09:00:47.332Z,5.47
2023-09-06T09:03:14.614Z,5.51
2023-09-06T09:05:43.789Z,5.51
2023-09-06T09:08:10.983Z,5.48
2023-09-06T09:10:38.696Z,5.58
2023-09-06T09:13:05.447Z,5.76
2023-09-06T09:15:33.134Z,5.74
2023-09-06T09:18:02.259Z,5.52
2023-09-06T09:20:37.274Z,5.84
2023-09-06T09:23:04.268Z,5.55
2023-09-06T09:25:33.279Z,5.73
2023-09-06T09:28:00.244Z,5.62
2023-09-06T09:30:28.062Z,5.36
2023-09-06T09:32:57.020Z,6.07
2023-09-06T09:38:27.718Z,5.77
2023-09-06T09:41:10.192Z,5.73
2023-09-06T09:43:44.212Z,6.03
2023-09-06T09:46:12.775Z,6.18
2023-09-06T09:48:39.844Z,5.87
2023-09-06T09:51:14.241Z,5.41
2023-09-06T09:56:58.391Z,5.67
2023-09-06T09:59:24.974Z,5.74
2023-09-06T10:01:54.404Z,5.71
2023-09-06T10:04:21.605Z,5.59
2023-09-06T10:06:48.786Z,5.69
2023-09-06T10:09:17.543Z,5.59
2023-09-06T10:11:51.567Z,5.57
2023-09-06T10:14:18.489Z,5.53
2023-09-06T10:16:51.410Z,5.91
2023-09-06T10:19:18.372Z,5.51
2023-09-06T10:21:45.119Z,5.77
2023-09-06T10:24:11.938Z,5.54
2023-09-06T10:26:38.645Z,5.79
2023-09-06T10:29:05.447Z,5.64
2023-09-06T10:31:32.363Z,5.61
2023-09-06T10:33:59.743Z,5.53
2023-09-06T10:36:26.655Z,5.46
2023-09-06T10:38:53.569Z,5.64
2023-09-06T10:41:20.645Z,5.88
2023-09-06T10:43:54.672Z,5.70
2023-09-06T10:46:21.744Z,5.73
2023-09-06T10:48:48.784Z,5.40
2023-09-06T10:51:15.447Z,5.32
2023-09-06T10:53:42.415Z,5.56
2023-09-06T10:56:09.345Z,5.49
2023-09-06T10:58:36.235Z,5.32
2023-09-06T11:01:03.723Z,5.22
2023-09-06T11:03:30.746Z,5.00
2023-09-06T11:05:57.837Z,5.05
2023-09-06T11:08:24.685Z,4.50
2023-09-06T11:10:51.363Z,4.35
2023-09-06T11:13:18.119Z,4.60
2023-09-06T11:15:44.883Z,4.61
2023-09-06T11:18:11.934Z,4.37
2023-09-06T11:20:39.365Z,4.78
2023-09-06T11:23:08.168Z,4.90
2023-09-06T11:25:35.254Z,4.35
2023-09-06T11:28:04.570Z,4.48
2023-09-06T11:30:32.921Z,4.61
2023-09-06T11:33:02.121Z,4.91
2023-09-06T11:35:28.988Z,4.82
2023-09-06T11:37:56.411Z,4.97
2023-09-06T11:40:23.468Z,5.02
2023-09-06T11:42:50.558Z,5.02
2023-09-06T11:45:19.836Z,5.23
2023-09-06T11:47:46.822Z,5.15
2023-09-06T11:50:13.745Z,5.02
2023-09-06T11:52:55.206Z,4.77
2023-09-06T11:55:24.253Z,5.02
2023-09-06T11:57:53.648Z,4.79
2023-09-06T12:00:22.396Z,4.68
2023-09-06T12:02:49.331Z,5.04
2023-09-06T12:05:16.073Z,4.89
2023-09-06T12:07:43.093Z,5.16
2023-09-06T12:10:10.533Z,5.13
2023-09-06T12:12:37.392Z,5.23
2023-09-06T12:15:04.244Z,5.22
2023-09-06T12:17:31.294Z,5.01
2023-09-06T12:20:00.454Z,5.09
2023-09-06T12:22:27.441Z,4.86
2023-09-06T12:24:56.093Z,4.86
2023-09-06T12:27:23.022Z,5.36
2023-09-06T12:29:52.154Z,5.04
2023-09-06T12:32:18.814Z,4.80
2023-09-06T12:34:45.701Z,4.68
2023-09-06T12:37:12.655Z,4.80
2023-09-06T12:39:41.614Z,4.50
2023-09-06T12:42:08.675Z,4.10
2023-09-06T12:44:37.984Z,4.34
2023-09-06T12:47:06.469Z,4.39
2023-09-06T12:49:33.137Z,4.47
2023-09-06T12:52:00.053Z,4.88
2023-09-06T12:54:26.957Z,4.66
2023-09-06T12:56:54.265Z,4.42
2023-09-06T12:59:21.352Z,4.41
2023-09-06T13:01:49.982Z,4.31
2023-09-06T13:04:16.888Z,4.43
2023-09-06T13:06:44.926Z,4.51
2023-09-06T13:09:11.916Z,4.46
2023-09-06T13:11:38.913Z,4.35
2023-09-06T13:14:05.825Z,4.45
2023-09-06T13:16:32.590Z,4.36
2023-09-06T13:19:04.428Z,4.40
2023-09-06T13:21:31.533Z,4.55
2023-09-06T13:24:00.887Z,4.77
2023-09-06T13:26:29.782Z,4.29
2023-09-06T13:28:56.636Z,4.46
2023-09-06T13:31:23.348Z,4.29
2023-09-06T13:33:50.802Z,4.16
2023-09-06T13:36:18.496Z,4.50
2023-09-06T13:38:48.155Z,4.11
2023-09-06T13:41:14.923Z,4.57
2023-09-06T13:43:42.020Z,4.47
2023-09-06T13:46:09.498Z,4.31
2023-09-06T13:48:37.343Z,4.34
2023-09-06T13:51:04.572Z,4.39
2023-09-06T13:53:32.337Z,4.37
2023-09-06T13:56:01.461Z,4.69
2023-09-06T13:58:31.730Z,4.79
2023-09-06T14:00:58.948Z,4.68
2023-09-06T14:03:26.258Z,4.62
2023-09-06T14:05:54.121Z,4.28
2023-09-06T14:08:20.897Z,4.35
2023-09-06T14:10:47.605Z,4.73
2023-09-06T14:13:14.518Z,4.78
2023-09-06T14:15:41.351Z,4.61
2023-09-06T14:18:08.386Z,4.62
2023-09-06T14:20:35.441Z,4.93
2023-09-06T14:23:02.560Z,4.71
2023-09-06T14:25:29.316Z,4.56
2023-09-06T14:27:55.870Z,4.14
2023-09-06T14:30:22.481Z,4.58
2023-09-06T14:32:49.263Z,3.94
2023-09-06T14:35:16.057Z,4.37
2023-09-06T14:37:42.773Z,4.33
2023-09-06T14:40:11.546Z,4.67
2023-09-06T14:42:40.044Z,4.50
2023-09-06T14:45:07.572Z,4.98
2023-09-06T14:47:34.537Z,4.55
2023-09-06T14:50:01.497Z,4.76
2023-09-06T14:52:31.150Z,4.96
2023-09-06T14:54:58.207Z,4.44
2023-09-06T14:57:27.303Z,4.67
2023-09-06T14:59:57.350Z,4.68
2023-09-06T15:02:24.107Z,5.52
2023-09-06T15:04:51.147Z,4.85
2023-09-06T15:07:17.821Z,4.71
2023-09-06T15:09:44.694Z,4.72
2023-09-06T15:12:23.788Z,4.62
2023-09-06T15:14:55.170Z,4.71
2023-09-06T15:17:22.965Z,4.97
2023-09-06T15:19:49.607Z,4.92
2023-09-06T15:22:29.089Z,5.17
2023-09-06T15:25:03.211Z,5.08
2023-09-06T15:27:30.095Z,4.96
2023-09-06T15:29:56.806Z,5.41
2023-09-06T15:32:25.039Z,5.00
2023-09-06T15:34:51.635Z,5.26
2023-09-06T15:37:18.648Z,5.27
2023-09-06T15:39:49.853Z,5.39
2023-09-06T15:42:16.923Z,5.39
2023-09-06T15:44:43.858Z,5.37
2023-09-06T15:47:13.078Z,5.23
2023-09-06T15:49:40.067Z,4.81
2023-09-06T15:52:06.936Z,4.88
2023-09-06T15:54:33.639Z,4.65
2023-09-06T15:57:05.477Z,4.72
2023-09-06T15:59:33.943Z,5.06
2023-09-06T16:49:48.370Z,5.44
2023-09-06T16:52:16.056Z,5.18
2023-09-06T16:54:42.825Z,4.91
2023-09-06T17:00:01.994Z,5.65
2023-09-06T17:02:29.380Z,5.12
2023-09-06T17:04:57.048Z,5.06
2023-09-06T17:07:23.716Z,5.15
2023-09-06T17:10:02.760Z,5.21
2023-09-06T17:12:30.495Z,10.65
2023-09-06T17:14:57.309Z,9.44
2023-09-06T17:17:24.026Z,6.95
2023-09-06T17:19:50.543Z,5.62
2023-09-06T17:22:18.579Z,5.49
2023-09-06T17:24:46.428Z,5.52
2023-09-06T17:27:13.025Z,5.55
2023-09-06T17:29:39.760Z,5.55
2023-09-06T17:32:07.237Z,5.56
2023-09-06T17:34:34.136Z,5.25
2023-09-06T17:37:01.066Z,5.23
2023-09-06T17:39:27.633Z,5.07
2023-09-06T17:41:54.378Z,5.21
2023-09-06T17:44:21.072Z,5.08
2023-09-06T17:46:48.009Z,5.17
2023-09-06T17:49:14.627Z,5.31
2023-09-06T17:51:41.692Z,5.34
2023-09-06T17:54:08.318Z,5.35
2023-09-06T17:56:35.999Z,5.62
2023-09-06T17:59:03.733Z,5.09
2023-09-06T18:01:30.444Z,5.45
2023-09-06T18:03:57.582Z,5.26
2023-09-06T18:06:24.445Z,5.39
2023-09-06T18:08:51.358Z,5.29
2023-09-06T18:11:17.909Z,6.47
2023-09-06T18:13:44.602Z,8.80
2023-09-06T18:16:11.193Z,5.51
2023-09-06T18:18:37.828Z,5.64
2023-09-06T18:21:05.446Z,5.97
2023-09-06T18:23:33.137Z,6.33
2023-09-06T18:26:01.973Z,6.42
2023-09-06T18:28:28.886Z,5.78
2023-09-06T18:30:55.696Z,5.52
2023-09-06T18:33:22.459Z,5.54
2023-09-06T18:35:49.135Z,5.54
2023-09-06T18:38:15.999Z,5.89
2023-09-06T18:40:43.582Z,5.91
2023-09-06T18:43:10.504Z,5.98
2023-09-06T18:45:37.054Z,6.12
2023-09-06T18:48:04.629Z,6.31
2023-09-06T18:50:31.280Z,6.49
2023-09-06T18:52:58.124Z,6.51
2023-09-06T18:55:25.716Z,6.90
2023-09-06T18:58:05.550Z,7.06
2023-09-06T19:00:34.142Z,6.79
2023-09-06T19:03:02.132Z,7.35
2023-09-06T19:05:28.801Z,7.09
2023-09-06T19:07:56.202Z,6.82
2023-09-06T19:10:23.049Z,6.54
2023-09-06T19:12:51.606Z,16.59
2023-09-06T19:15:18.444Z,10.79
2023-09-06T19:17:47.484Z,7.48
2023-09-06T19:20:14.184Z,6.63
2023-09-06T19:22:41.607Z,6.44
2023-09-06T19:25:08.158Z,6.62
2023-09-06T19:27:35.072Z,6.44
2023-09-06T19:30:02.360Z,6.66
2023-09-06T19:35:11.640Z,6.75
2023-09-06T19:37:39.314Z,6.79
2023-09-06T19:40:06.284Z,6.77
2023-09-06T19:42:34.542Z,7.56
2023-09-06T19:45:01.429Z,7.59
2023-09-06T19:47:28.128Z,8.20
2023-09-06T19:49:57.011Z,7.95
2023-09-06T19:52:26.569Z,8.01
2023-09-06T19:54:56.414Z,8.20
2023-09-06T19:57:24.496Z,9.13
2023-09-06T19:59:51.921Z,7.23
2023-09-06T20:02:19.041Z,8.62
2023-09-06T20:04:46.028Z,9.10
2023-09-06T20:07:13.107Z,8.37
2023-09-06T20:09:40.007Z,10.41
2023-09-06T20:12:06.651Z,8.13
2023-09-06T20:14:33.595Z,8.36
2023-09-06T20:17:00.622Z,7.07
2023-09-06T20:19:27.533Z,13.63
2023-09-06T20:21:54.168Z,22.00
2023-09-06T20:24:25.362Z,8.94
2023-09-06T20:26:52.117Z,9.34
2023-09-06T20:29:18.752Z,8.19
2023-09-06T20:31:46.023Z,8.23
2023-09-06T20:34:12.742Z,8.94
2023-09-06T20:36:39.589Z,8.52
2023-09-06T20:39:07.613Z,9.58
2023-09-06T20:41:35.832Z,8.84
2023-09-06T20:44:02.518Z,8.61
2023-09-06T20:46:35.097Z,8.76
2023-09-06T20:49:02.968Z,8.68
2023-09-06T20:51:30.608Z,7.79
2023-09-06T20:53:57.233Z,8.12
2023-09-06T20:56:24.756Z,8.48
2023-09-06T20:58:52.388Z,8.07
2023-09-06T21:01:19.107Z,8.21
2023-09-06T21:03:46.076Z,8.54
2023-09-06T21:06:13.074Z,8.26
2023-09-06T21:08:40.044Z,7.19
2023-09-06T21:11:06.946Z,7.05
2023-09-06T21:13:33.593Z,6.52
2023-09-06T21:16:01.187Z,6.48
2023-09-06T21:18:28.902Z,6.85
2023-09-06T21:20:55.893Z,6.42
2023-09-06T21:23:23.637Z,6.27
2023-09-06T21:25:50.250Z,6.81
2023-09-06T21:28:16.904Z,6.72
2023-09-06T21:30:49.655Z,6.60
2023-09-06T21:33:16.715Z,6.40
2023-09-06T21:35:43.985Z,6.50
2023-09-06T21:38:11.379Z,6.80
2023-09-06T21:40:37.944Z,6.95
2023-09-06T21:43:17.001Z,7.11
2023-09-06T21:45:46.261Z,6.99
2023-09-06T21:48:16.122Z,6.98
2023-09-06T21:50:45.381Z,6.90
2023-09-06T21:53:12.734Z,7.05
2023-09-06T21:55:40.298Z,6.84
2023-09-06T21:58:11.187Z,6.58
2023-09-06T22:00:41.680Z,6.87
2023-09-06T22:03:08.880Z,6.88
2023-09-06T22:05:36.184Z,7.00
2023-09-06T22:08:04.507Z,7.01
2023-09-06T22:10:31.086Z,6.80
2023-09-06T22:12:58.689Z,6.47
2023-09-06T22:15:25.644Z,6.64
2023-09-06T22:17:52.622Z,6.42
2023-09-06T22:20:19.384Z,6.61
2023-09-06T22:22:47.024Z,6.58
2023-09-06T22:25:14.006Z,6.47
2023-09-06T22:27:41.487Z,6.43
2023-09-06T22:30:08.352Z,6.53
2023-09-06T22:32:35.277Z,6.44
2023-09-06T22:35:02.749Z,6.06
2023-09-06T22:37:32.529Z,6.41
2023-09-06T22:39:59.576Z,6.35
2023-09-06T22:42:26.997Z,6.33
2023-09-06T22:44:53.848Z,6.06
2023-09-06T22:47:21.229Z,5.78
2023-09-06T22:49:48.083Z,5.61
2023-09-06T22:52:16.461Z,5.71
2023-09-06T22:54:43.929Z,5.64
2023-09-06T22:57:14.172Z,5.61
2023-09-06T22:59:40.846Z,5.62
2023-09-06T23:02:08.383Z,5.53
2023-09-06T23:04:35.158Z,5.50
2023-09-06T23:07:03.834Z,5.39
2023-09-06T23:09:31.596Z,5.58
2023-09-06T23:11:59.251Z,5.78
2023-09-06T23:14:28.108Z,5.63
2023-09-06T23:16:55.102Z,5.61
2023-09-06T23:19:23.556Z,5.46
2023-09-06T23:21:50.437Z,5.68
2023-09-06T23:24:17.414Z,5.80
2023-09-06T23:26:45.482Z,5.46
2023-09-06T23:29:12.402Z,5.75
2023-09-06T23:31:39.389Z,5.70
2023-09-06T23:34:07.113Z,5.32
2023-09-06T23:36:35.386Z,5.42
2023-09-06T23:39:04.483Z,5.44
2023-09-06T23:41:32.099Z,5.41
2023-09-06T23:44:06.266Z,5.35
2023-09-06T23:46:34.385Z,5.73
2023-09-06T23:49:01.432Z,5.87
2023-09-06T23:51:28.417Z,5.58
2023-09-06T23:53:56.121Z,5.60
2023-09-06T23:56:23.350Z,5.81
2023-09-06T23:58:50.213Z,6.03
